sensor_id;sensor_type;location;lat;lon;timestamp;temperature;humidity
1179;DHT22;578;48.408;10.004;2024-03-02T00:00:26;4.00;99.90
1179;DHT22;578;48.408;10.004;2024-03-02T00:02:28;3.90;99.90
1179;DHT22;578;48.408;10.004;2024-03-02T00:04:30;4.00;99.90
1179;DHT22;578;48.408;10.004;2024-03-02T00:06:32;4.00;99.90
1179;DHT22;578;48.408;10.004;2024-03-02T00:08:34;4.00;99.90
1179;DHT22;578;48.408;10.004;2024-03-02T00:10:37;4.00;99.90
1179;DHT22;578;48.408;10.004;2024-03-02T00:12:40;4.00;99.90
1179;DHT22;578;48.408;10.004;2024-03-02T00:14:42;4.00;99.90
1179;DHT22;578;48.408;10.004;2024-03-02T00:16:44;4.00;99.90
1179;DHT22;578;48.408;10.004;2024-03-02T00:18:45;4.00;99.90
1179;DHT22;578;48.408;10.004;2024-03-02T00:20:49;4.10;99.90
1179;DHT22;578;48.408;10.004;2024-03-02T00:23:03;4.20;99.90
1179;DHT22;578;48.408;10.004;2024-03-02T00:25:06;4.10;99.90
1179;DHT22;578;48.408;10.004;2024-03-02T00:27:13;4.20;99.90
1179;DHT22;578;48.408;10.004;2024-03-02T00:29:16;4.20;99.90
1179;DHT22;578;48.408;10.004;2024-03-02T00:31:20;4.20;99.90
1179;DHT22;578;48.408;10.004;2024-03-02T00:33:22;4.30;99.90
1179;DHT22;578;48.408;10.004;2024-03-02T00:35:23;4.30;99.90
1179;DHT22;578;48.408;10.004;2024-03-02T00:37:26;4.30;99.90
1179;DHT22;578;48.408;10.004;2024-03-02T00:39:29;4.30;99.90
1179;DHT22;578;48.408;10.004;2024-03-02T00:41:31;4.30;99.90
1179;DHT22;578;48.408;10.004;2024-03-02T00:43:43;4.30;99.90
1179;DHT22;578;48.408;10.004;2024-03-02T00:45:45;4.30;99.90
1179;DHT22;578;48.408;10.004;2024-03-02T00:47:46;4.20;99.90
1179;DHT22;578;48.408;10.004;2024-03-02T00:49:48;4.20;99.90
1179;DHT22;578;48.408;10.004;2024-03-02T00:51:52;4.20;99.90
1179;DHT22;578;48.408;10.004;2024-03-02T00:53:58;4.20;99.90
1179;DHT22;578;48.408;10.004;2024-03-02T00:56:01;4.30;99.90
1179;DHT22;578;48.408;10.004;2024-03-02T00:58:03;4.30;99.90
1179;DHT22;578;48.408;10.004;2024-03-02T01:00:06;4.20;99.90
1179;DHT22;578;48.408;10.004;2024-03-02T01:02:12;4.20;99.90
1179;DHT22;578;48.408;10.004;2024-03-02T01:04:14;4.20;99.90
1179;DHT22;578;48.408;10.004;2024-03-02T01:06:15;4.20;99.90
1179;DHT22;578;48.408;10.004;2024-03-02T01:08:17;4.20;99.90
1179;DHT22;578;48.408;10.004;2024-03-02T01:10:19;4.20;99.90
1179;DHT22;578;48.408;10.004;2024-03-02T01:12:21;4.20;99.90
1179;DHT22;578;48.408;10.004;2024-03-02T01:14:22;4.20;99.90
1179;DHT22;578;48.408;10.004;2024-03-02T01:16:24;4.30;99.90
1179;DHT22;578;48.408;10.004;2024-03-02T01:18:25;4.30;99.90
1179;DHT22;578;48.408;10.004;2024-03-02T01:20:27;4.40;99.90
1179;DHT22;578;48.408;10.004;2024-03-02T01:22:27;4.40;99.90
1179;DHT22;578;48.408;10.004;2024-03-02T01:24:29;4.40;99.90
1179;DHT22;578;48.408;10.004;2024-03-02T01:26:32;4.40;99.90
1179;DHT22;578;48.408;10.004;2024-03-02T01:28:34;4.40;99.90
1179;DHT22;578;48.408;10.004;2024-03-02T01:30:36;4.40;99.90
1179;DHT22;578;48.408;10.004;2024-03-02T01:32:37;4.40;99.90
1179;DHT22;578;48.408;10.004;2024-03-02T01:34:39;4.40;99.90
1179;DHT22;578;48.408;10.004;2024-03-02T01:36:40;4.30;99.90
1179;DHT22;578;48.408;10.004;2024-03-02T01:38:42;4.30;99.90
1179;DHT22;578;48.408;10.004;2024-03-02T01:40:44;4.40;99.90
1179;DHT22;578;48.408;10.004;2024-03-02T01:42:47;4.40;99.90
1179;DHT22;578;48.408;10.004;2024-03-02T01:44:49;4.40;99.90
1179;DHT22;578;48.408;10.004;2024-03-02T01:46:50;4.40;99.90
1179;DHT22;578;48.408;10.004;2024-03-02T01:48:52;4.40;99.90
1179;DHT22;578;48.408;10.004;2024-03-02T01:50:54;4.50;99.90
1179;DHT22;578;48.408;10.004;2024-03-02T01:52:56;4.40;99.90
1179;DHT22;578;48.408;10.004;2024-03-02T01:54:58;4.30;99.90
1179;DHT22;578;48.408;10.004;2024-03-02T01:57:00;4.40;99.90
1179;DHT22;578;48.408;10.004;2024-03-02T01:59:03;4.40;99.90
1179;DHT22;578;48.408;10.004;2024-03-02T02:01:05;4.50;99.90
1179;DHT22;578;48.408;10.004;2024-03-02T02:03:07;4.40;99.90
1179;DHT22;578;48.408;10.004;2024-03-02T02:05:09;4.50;99.90
1179;DHT22;578;48.408;10.004;2024-03-02T02:07:10;4.60;99.90
1179;DHT22;578;48.408;10.004;2024-03-02T02:09:12;4.60;99.90
1179;DHT22;578;48.408;10.004;2024-03-02T02:11:15;4.60;99.90
1179;DHT22;578;48.408;10.004;2024-03-02T02:13:16;4.70;99.90
1179;DHT22;578;48.408;10.004;2024-03-02T02:15:23;4.70;99.90
1179;DHT22;578;48.408;10.004;2024-03-02T02:17:25;4.70;99.90
1179;DHT22;578;48.408;10.004;2024-03-02T02:19:27;4.60;99.90
1179;DHT22;578;48.408;10.004;2024-03-02T02:21:30;4.70;99.90
1179;DHT22;578;48.408;10.004;2024-03-02T02:23:32;4.70;99.90
1179;DHT22;578;48.408;10.004;2024-03-02T02:25:34;4.70;99.90
1179;DHT22;578;48.408;10.004;2024-03-02T02:27:34;4.70;99.90
1179;DHT22;578;48.408;10.004;2024-03-02T02:29:36;4.80;99.90
1179;DHT22;578;48.408;10.004;2024-03-02T02:31:37;4.80;99.90
1179;DHT22;578;48.408;10.004;2024-03-02T02:33:39;4.80;99.90
1179;DHT22;578;48.408;10.004;2024-03-02T02:35:41;4.80;99.90
1179;DHT22;578;48.408;10.004;2024-03-02T02:37:45;4.80;99.90
1179;DHT22;578;48.408;10.004;2024-03-02T02:39:47;4.80;99.90
1179;DHT22;578;48.408;10.004;2024-03-02T02:41:49;4.80;99.90
1179;DHT22;578;48.408;10.004;2024-03-02T02:43:51;4.80;99.90
1179;DHT22;578;48.408;10.004;2024-03-02T02:45:52;4.90;99.90
1179;DHT22;578;48.408;10.004;2024-03-02T02:47:54;4.90;99.90
1179;DHT22;578;48.408;10.004;2024-03-02T02:49:56;4.90;99.90
1179;DHT22;578;48.408;10.004;2024-03-02T02:51:58;4.90;99.90
1179;DHT22;578;48.408;10.004;2024-03-02T02:54:01;4.90;99.90
1179;DHT22;578;48.408;10.004;2024-03-02T02:56:03;4.90;99.90
1179;DHT22;578;48.408;10.004;2024-03-02T02:58:05;5.00;99.90
1179;DHT22;578;48.408;10.004;2024-03-02T03:00:09;5.00;99.90
1179;DHT22;578;48.408;10.004;2024-03-02T03:02:14;5.00;99.90
1179;DHT22;578;48.408;10.004;2024-03-02T03:04:16;5.00;99.90
1179;DHT22;578;48.408;10.004;2024-03-02T03:06:18;5.00;99.90
1179;DHT22;578;48.408;10.004;2024-03-02T03:08:19;5.00;99.90
1179;DHT22;578;48.408;10.004;2024-03-02T03:10:22;5.00;99.90
1179;DHT22;578;48.408;10.004;2024-03-02T03:12:26;5.00;99.90
1179;DHT22;578;48.408;10.004;2024-03-02T03:14:28;4.90;99.90
1179;DHT22;578;48.408;10.004;2024-03-02T03:16:29;4.90;99.90
1179;DHT22;578;48.408;10.004;2024-03-02T03:18:31;4.90;99.90
1179;DHT22;578;48.408;10.004;2024-03-02T03:20:33;5.00;99.90
1179;DHT22;578;48.408;10.004;2024-03-02T03:22:35;5.00;99.90
1179;DHT22;578;48.408;10.004;2024-03-02T03:24:37;4.90;99.90
1179;DHT22;578;48.408;10.004;2024-03-02T03:26:40;4.90;99.90
1179;DHT22;578;48.408;10.004;2024-03-02T03:28:42;4.90;99.90
1179;DHT22;578;48.408;10.004;2024-03-02T03:30:44;4.90;99.90
1179;DHT22;578;48.408;10.004;2024-03-02T03:32:44;5.00;99.90
1179;DHT22;578;48.408;10.004;2024-03-02T03:34:48;5.00;99.90
1179;DHT22;578;48.408;10.004;2024-03-02T03:36:50;4.90;99.90
1179;DHT22;578;48.408;10.004;2024-03-02T03:38:52;4.90;99.90
1179;DHT22;578;48.408;10.004;2024-03-02T03:40:53;4.90;99.90
1179;DHT22;578;48.408;10.004;2024-03-02T03:42:57;4.90;99.90
1179;DHT22;578;48.408;10.004;2024-03-02T03:44:57;4.90;99.90
1179;DHT22;578;48.408;10.004;2024-03-02T03:46:59;4.90;99.90
1179;DHT22;578;48.408;10.004;2024-03-02T03:49:02;4.90;99.90
1179;DHT22;578;48.408;10.004;2024-03-02T03:51:05;4.80;99.90
1179;DHT22;578;48.408;10.004;2024-03-02T03:53:07;4.90;99.90
1179;DHT22;578;48.408;10.004;2024-03-02T03:55:09;4.90;99.90
1179;DHT22;578;48.408;10.004;2024-03-02T03:57:10;4.90;99.90
1179;DHT22;578;48.408;10.004;2024-03-02T03:59:13;4.90;99.90
1179;DHT22;578;48.408;10.004;2024-03-02T04:01:15;4.90;99.90
1179;DHT22;578;48.408;10.004;2024-03-02T04:03:17;4.90;99.90
1179;DHT22;578;48.408;10.004;2024-03-02T04:05:19;4.90;99.90
1179;DHT22;578;48.408;10.004;2024-03-02T04:07:19;4.90;99.90
1179;DHT22;578;48.408;10.004;2024-03-02T04:09:21;4.90;99.90
1179;DHT22;578;48.408;10.004;2024-03-02T04:11:23;4.90;99.90
1179;DHT22;578;48.408;10.004;2024-03-02T04:13:25;5.00;99.90
1179;DHT22;578;48.408;10.004;2024-03-02T04:15:28;5.00;99.90
1179;DHT22;578;48.408;10.004;2024-03-02T04:17:31;4.90;99.90
1179;DHT22;578;48.408;10.004;2024-03-02T04:19:33;5.00;99.90
1179;DHT22;578;48.408;10.004;2024-03-02T04:21:35;5.00;99.90
1179;DHT22;578;48.408;10.004;2024-03-02T04:23:37;4.90;99.90
1179;DHT22;578;48.408;10.004;2024-03-02T04:25:39;5.00;99.90
1179;DHT22;578;48.408;10.004;2024-03-02T04:27:41;5.00;99.90
1179;DHT22;578;48.408;10.004;2024-03-02T04:29:43;4.90;99.90
1179;DHT22;578;48.408;10.004;2024-03-02T04:31:45;4.90;99.90
1179;DHT22;578;48.408;10.004;2024-03-02T04:33:47;5.00;99.90
1179;DHT22;578;48.408;10.004;2024-03-02T04:35:48;4.90;99.90
1179;DHT22;578;48.408;10.004;2024-03-02T04:37:50;4.90;99.90
1179;DHT22;578;48.408;10.004;2024-03-02T04:39:52;4.90;99.90
1179;DHT22;578;48.408;10.004;2024-03-02T04:41:53;4.90;99.90
1179;DHT22;578;48.408;10.004;2024-03-02T04:43:54;4.90;99.90
1179;DHT22;578;48.408;10.004;2024-03-02T04:45:56;5.00;99.90
1179;DHT22;578;48.408;10.004;2024-03-02T04:47:59;4.90;99.90
1179;DHT22;578;48.408;10.004;2024-03-02T04:50:01;4.90;99.90
1179;DHT22;578;48.408;10.004;2024-03-02T04:52:03;4.90;99.90
1179;DHT22;578;48.408;10.004;2024-03-02T04:54:05;4.90;99.90
1179;DHT22;578;48.408;10.004;2024-03-02T04:56:07;4.90;99.90
1179;DHT22;578;48.408;10.004;2024-03-02T04:58:28;4.90;99.90
1179;DHT22;578;48.408;10.004;2024-03-02T05:00:30;4.90;99.90
1179;DHT22;578;48.408;10.004;2024-03-02T05:02:31;4.90;99.90
1179;DHT22;578;48.408;10.004;2024-03-02T05:04:34;4.90;99.90
1179;DHT22;578;48.408;10.004;2024-03-02T05:06:36;4.90;99.90
1179;DHT22;578;48.408;10.004;2024-03-02T05:08:38;4.90;99.90
1179;DHT22;578;48.408;10.004;2024-03-02T05:10:40;4.90;99.90
1179;DHT22;578;48.408;10.004;2024-03-02T05:12:42;4.90;99.90
1179;DHT22;578;48.408;10.004;2024-03-02T05:14:59;4.90;99.90
1179;DHT22;578;48.408;10.004;2024-03-02T05:17:01;4.90;99.90
1179;DHT22;578;48.408;10.004;2024-03-02T05:19:03;4.90;99.90
1179;DHT22;578;48.408;10.004;2024-03-02T05:21:08;4.90;99.90
1179;DHT22;578;48.408;10.004;2024-03-02T05:23:10;4.90;99.90
1179;DHT22;578;48.408;10.004;2024-03-02T05:25:11;4.90;99.90
1179;DHT22;578;48.408;10.004;2024-03-02T05:27:13;4.90;99.90
1179;DHT22;578;48.408;10.004;2024-03-02T05:29:15;4.90;99.90
1179;DHT22;578;48.408;10.004;2024-03-02T05:31:17;4.90;99.90
1179;DHT22;578;48.408;10.004;2024-03-02T05:33:18;4.80;99.90
1179;DHT22;578;48.408;10.004;2024-03-02T05:35:22;4.90;99.90
1179;DHT22;578;48.408;10.004;2024-03-02T05:37:25;4.90;99.90
1179;DHT22;578;48.408;10.004;2024-03-02T05:39:26;4.80;99.90
1179;DHT22;578;48.408;10.004;2024-03-02T05:41:28;4.80;99.90
1179;DHT22;578;48.408;10.004;2024-03-02T05:43:29;4.80;99.90
1179;DHT22;578;48.408;10.004;2024-03-02T05:45:31;4.80;99.90
1179;DHT22;578;48.408;10.004;2024-03-02T05:47:32;4.80;99.90
1179;DHT22;578;48.408;10.004;2024-03-02T05:49:35;4.80;99.90
1179;DHT22;578;48.408;10.004;2024-03-02T05:51:37;4.80;99.90
1179;DHT22;578;48.408;10.004;2024-03-02T05:53:40;4.80;99.90
1179;DHT22;578;48.408;10.004;2024-03-02T05:55:42;4.80;99.90
1179;DHT22;578;48.408;10.004;2024-03-02T05:57:43;4.70;99.90
1179;DHT22;578;48.408;10.004;2024-03-02T05:59:59;4.70;99.90
1179;DHT22;578;48.408;10.004;2024-03-02T06:02:01;4.70;99.90
1179;DHT22;578;48.408;10.004;2024-03-02T06:04:03;4.70;99.90
1179;DHT22;578;48.408;10.004;2024-03-02T06:06:04;4.80;99.90
1179;DHT22;578;48.408;10.004;2024-03-02T06:08:06;4.70;99.90
1179;DHT22;578;48.408;10.004;2024-03-02T06:10:10;4.70;99.90
1179;DHT22;578;48.408;10.004;2024-03-02T06:12:12;4.70;99.90
1179;DHT22;578;48.408;10.004;2024-03-02T06:14:13;4.80;99.90
1179;DHT22;578;48.408;10.004;2024-03-02T06:16:15;4.80;99.90
1179;DHT22;578;48.408;10.004;2024-03-02T06:18:17;4.80;99.90
1179;DHT22;578;48.408;10.004;2024-03-02T06:20:17;4.80;99.90
1179;DHT22;578;48.408;10.004;2024-03-02T06:22:19;4.80;99.90
1179;DHT22;578;48.408;10.004;2024-03-02T06:24:21;4.80;99.90
1179;DHT22;578;48.408;10.004;2024-03-02T06:26:25;4.80;99.90
1179;DHT22;578;48.408;10.004;2024-03-02T06:28:26;4.80;99.90
1179;DHT22;578;48.408;10.004;2024-03-02T06:30:27;4.80;99.90
1179;DHT22;578;48.408;10.004;2024-03-02T06:32:30;4.90;99.90
1179;DHT22;578;48.408;10.004;2024-03-02T06:34:31;4.80;99.90
1179;DHT22;578;48.408;10.004;2024-03-02T06:36:32;4.80;99.90
1179;DHT22;578;48.408;10.004;2024-03-02T06:38:34;4.90;99.90
1179;DHT22;578;48.408;10.004;2024-03-02T06:40:36;4.90;99.90
1179;DHT22;578;48.408;10.004;2024-03-02T06:42:41;4.90;99.90
1179;DHT22;578;48.408;10.004;2024-03-02T06:44:43;4.90;99.90
1179;DHT22;578;48.408;10.004;2024-03-02T06:46:45;4.90;99.90
1179;DHT22;578;48.408;10.004;2024-03-02T06:48:46;4.90;99.90
1179;DHT22;578;48.408;10.004;2024-03-02T06:50:48;5.00;99.90
1179;DHT22;578;48.408;10.004;2024-03-02T06:52:50;5.00;99.90
1179;DHT22;578;48.408;10.004;2024-03-02T06:54:52;5.00;99.90
1179;DHT22;578;48.408;10.004;2024-03-02T06:56:53;5.00;99.90
1179;DHT22;578;48.408;10.004;2024-03-02T06:58:56;5.10;99.90
1179;DHT22;578;48.408;10.004;2024-03-02T07:00:58;5.10;99.90
1179;DHT22;578;48.408;10.004;2024-03-02T07:03:00;5.10;99.90
1179;DHT22;578;48.408;10.004;2024-03-02T07:05:03;5.10;99.90
1179;DHT22;578;48.408;10.004;2024-03-02T07:07:04;5.10;99.90
1179;DHT22;578;48.408;10.004;2024-03-02T07:09:06;5.20;99.90
1179;DHT22;578;48.408;10.004;2024-03-02T07:11:11;5.10;99.90
1179;DHT22;578;48.408;10.004;2024-03-02T07:13:12;5.10;99.90
1179;DHT22;578;48.408;10.004;2024-03-02T07:15:15;5.20;99.90
1179;DHT22;578;48.408;10.004;2024-03-02T07:17:33;5.20;99.90
1179;DHT22;578;48.408;10.004;2024-03-02T07:19:38;5.10;99.90
1179;DHT22;578;48.408;10.004;2024-03-02T07:21:39;5.10;99.90
1179;DHT22;578;48.408;10.004;2024-03-02T07:23:42;5.10;99.90
1179;DHT22;578;48.408;10.004;2024-03-02T07:25:43;5.20;99.90
1179;DHT22;578;48.408;10.004;2024-03-02T07:27:45;5.20;99.90
1179;DHT22;578;48.408;10.004;2024-03-02T07:29:47;5.30;99.90
1179;DHT22;578;48.408;10.004;2024-03-02T07:31:50;5.30;99.90
1179;DHT22;578;48.408;10.004;2024-03-02T07:33:51;5.20;99.90
1179;DHT22;578;48.408;10.004;2024-03-02T07:35:54;5.20;99.90
1179;DHT22;578;48.408;10.004;2024-03-02T07:37:56;5.30;99.90
1179;DHT22;578;48.408;10.004;2024-03-02T07:39:58;5.30;99.90
1179;DHT22;578;48.408;10.004;2024-03-02T07:41:59;5.40;99.90
1179;DHT22;578;48.408;10.004;2024-03-02T07:44:01;5.40;99.90
1179;DHT22;578;48.408;10.004;2024-03-02T07:46:03;5.40;99.90
1179;DHT22;578;48.408;10.004;2024-03-02T07:48:06;5.40;99.90
1179;DHT22;578;48.408;10.004;2024-03-02T07:50:09;5.40;99.90
1179;DHT22;578;48.408;10.004;2024-03-02T07:52:10;5.40;99.90
1179;DHT22;578;48.408;10.004;2024-03-02T07:54:12;5.50;99.90
1179;DHT22;578;48.408;10.004;2024-03-02T07:56:14;5.50;99.90
1179;DHT22;578;48.408;10.004;2024-03-02T07:58:22;5.40;99.90
1179;DHT22;578;48.408;10.004;2024-03-02T08:00:24;5.40;99.90
1179;DHT22;578;48.408;10.004;2024-03-02T08:02:26;5.50;99.90
1179;DHT22;578;48.408;10.004;2024-03-02T08:04:29;5.50;99.90
1179;DHT22;578;48.408;10.004;2024-03-02T08:06:31;5.40;99.90
1179;DHT22;578;48.408;10.004;2024-03-02T08:08:33;5.50;99.90
1179;DHT22;578;48.408;10.004;2024-03-02T08:10:35;5.60;99.90
1179;DHT22;578;48.408;10.004;2024-03-02T08:12:37;5.70;99.90
1179;DHT22;578;48.408;10.004;2024-03-02T08:14:39;5.70;99.90
1179;DHT22;578;48.408;10.004;2024-03-02T08:16:41;5.60;99.90
1179;DHT22;578;48.408;10.004;2024-03-02T08:18:42;5.70;99.90
1179;DHT22;578;48.408;10.004;2024-03-02T08:20:46;5.60;99.90
1179;DHT22;578;48.408;10.004;2024-03-02T08:22:48;5.70;99.90
1179;DHT22;578;48.408;10.004;2024-03-02T08:24:49;5.70;99.90
1179;DHT22;578;48.408;10.004;2024-03-02T08:26:50;5.70;99.90
1179;DHT22;578;48.408;10.004;2024-03-02T08:28:55;5.70;99.90
1179;DHT22;578;48.408;10.004;2024-03-02T08:30:57;5.70;99.90
1179;DHT22;578;48.408;10.004;2024-03-02T08:32:59;5.60;99.90
1179;DHT22;578;48.408;10.004;2024-03-02T08:35:01;5.50;99.90
1179;DHT22;578;48.408;10.004;2024-03-02T08:37:03;5.60;99.90
1179;DHT22;578;48.408;10.004;2024-03-02T08:39:05;5.70;99.90
1179;DHT22;578;48.408;10.004;2024-03-02T08:41:15;5.70;99.90
1179;DHT22;578;48.408;10.004;2024-03-02T08:43:17;5.70;99.90
1179;DHT22;578;48.408;10.004;2024-03-02T08:45:19;5.70;99.90
1179;DHT22;578;48.408;10.004;2024-03-02T08:47:21;5.70;99.90
1179;DHT22;578;48.408;10.004;2024-03-02T08:49:22;5.90;99.90
1179;DHT22;578;48.408;10.004;2024-03-02T08:51:24;5.90;99.90
1179;DHT22;578;48.408;10.004;2024-03-02T08:53:26;5.90;99.90
1179;DHT22;578;48.408;10.004;2024-03-02T08:55:28;6.00;99.90
1179;DHT22;578;48.408;10.004;2024-03-02T08:57:29;6.10;99.90
1179;DHT22;578;48.408;10.004;2024-03-02T08:59:31;6.10;99.90
1179;DHT22;578;48.408;10.004;2024-03-02T09:01:33;6.20;99.90
1179;DHT22;578;48.408;10.004;2024-03-02T09:03:35;6.20;99.90
1179;DHT22;578;48.408;10.004;2024-03-02T09:05:37;6.30;99.90
1179;DHT22;578;48.408;10.004;2024-03-02T09:07:39;6.40;99.90
1179;DHT22;578;48.408;10.004;2024-03-02T09:09:42;6.40;99.90
1179;DHT22;578;48.408;10.004;2024-03-02T09:11:45;6.20;99.90
1179;DHT22;578;48.408;10.004;2024-03-02T09:13:47;6.40;99.90
1179;DHT22;578;48.408;10.004;2024-03-02T09:15:49;6.60;99.90
1179;DHT22;578;48.408;10.004;2024-03-02T09:17:51;6.70;99.90
1179;DHT22;578;48.408;10.004;2024-03-02T09:19:52;6.70;99.90
1179;DHT22;578;48.408;10.004;2024-03-02T09:21:53;6.90;99.90
1179;DHT22;578;48.408;10.004;2024-03-02T09:23:56;7.10;99.90
1179;DHT22;578;48.408;10.004;2024-03-02T09:25:59;7.00;99.90
1179;DHT22;578;48.408;10.004;2024-03-02T09:28:01;7.10;99.90
1179;DHT22;578;48.408;10.004;2024-03-02T09:30:04;7.40;99.90
1179;DHT22;578;48.408;10.004;2024-03-02T09:32:08;7.60;99.90
1179;DHT22;578;48.408;10.004;2024-03-02T09:34:09;7.70;99.90
1179;DHT22;578;48.408;10.004;2024-03-02T09:36:17;7.90;99.90
1179;DHT22;578;48.408;10.004;2024-03-02T09:38:18;8.00;99.90
1179;DHT22;578;48.408;10.004;2024-03-02T09:40:22;8.10;99.90
1179;DHT22;578;48.408;10.004;2024-03-02T09:42:25;8.00;99.90
1179;DHT22;578;48.408;10.004;2024-03-02T09:44:27;8.10;99.90
1179;DHT22;578;48.408;10.004;2024-03-02T09:46:29;8.10;99.90
1179;DHT22;578;48.408;10.004;2024-03-02T09:48:30;7.90;99.90
1179;DHT22;578;48.408;10.004;2024-03-02T09:50:32;8.00;99.90
1179;DHT22;578;48.408;10.004;2024-03-02T09:52:35;8.30;99.90
1179;DHT22;578;48.408;10.004;2024-03-02T09:54:37;8.30;99.90
1179;DHT22;578;48.408;10.004;2024-03-02T09:56:39;8.70;99.90
1179;DHT22;578;48.408;10.004;2024-03-02T09:58:42;9.00;99.90
1179;DHT22;578;48.408;10.004;2024-03-02T10:00:44;8.90;99.90
1179;DHT22;578;48.408;10.004;2024-03-02T10:02:46;8.90;99.90
1179;DHT22;578;48.408;10.004;2024-03-02T10:04:49;8.80;99.90
1179;DHT22;578;48.408;10.004;2024-03-02T10:06:51;8.80;99.90
1179;DHT22;578;48.408;10.004;2024-03-02T10:08:54;8.60;99.90
1179;DHT22;578;48.408;10.004;2024-03-02T10:10:56;8.40;99.90
1179;DHT22;578;48.408;10.004;2024-03-02T10:13:03;8.30;99.90
1179;DHT22;578;48.408;10.004;2024-03-02T10:15:07;8.10;99.90
1179;DHT22;578;48.408;10.004;2024-03-02T10:17:11;8.10;99.90
1179;DHT22;578;48.408;10.004;2024-03-02T10:19:16;7.80;99.90
1179;DHT22;578;48.408;10.004;2024-03-02T10:21:18;7.80;99.90
1179;DHT22;578;48.408;10.004;2024-03-02T10:23:20;7.80;99.90
1179;DHT22;578;48.408;10.004;2024-03-02T10:25:29;7.90;99.90
1179;DHT22;578;48.408;10.004;2024-03-02T10:27:34;7.80;99.90
1179;DHT22;578;48.408;10.004;2024-03-02T10:29:39;8.20;99.90
1179;DHT22;578;48.408;10.004;2024-03-02T10:31:44;8.20;99.90
1179;DHT22;578;48.408;10.004;2024-03-02T10:33:46;8.50;99.90
1179;DHT22;578;48.408;10.004;2024-03-02T10:35:48;8.30;99.90
1179;DHT22;578;48.408;10.004;2024-03-02T10:37:52;8.10;99.90
1179;DHT22;578;48.408;10.004;2024-03-02T10:39:53;8.40;99.90
1179;DHT22;578;48.408;10.004;2024-03-02T10:41:55;8.70;99.90
1179;DHT22;578;48.408;10.004;2024-03-02T10:43:58;8.90;99.90
1179;DHT22;578;48.408;10.004;2024-03-02T10:46:00;8.90;99.90
1179;DHT22;578;48.408;10.004;2024-03-02T10:48:05;9.00;99.90
1179;DHT22;578;48.408;10.004;2024-03-02T10:50:07;8.90;99.90
1179;DHT22;578;48.408;10.004;2024-03-02T10:52:09;8.80;99.90
1179;DHT22;578;48.408;10.004;2024-03-02T10:54:11;9.10;99.90
1179;DHT22;578;48.408;10.004;2024-03-02T10:56:14;9.10;99.90
1179;DHT22;578;48.408;10.004;2024-03-02T10:58:18;8.90;99.90
1179;DHT22;578;48.408;10.004;2024-03-02T11:00:22;9.10;99.90
1179;DHT22;578;48.408;10.004;2024-03-02T11:02:31;9.10;99.90
1179;DHT22;578;48.408;10.004;2024-03-02T11:04:34;9.10;99.90
1179;DHT22;578;48.408;10.004;2024-03-02T11:06:37;9.40;99.90
1179;DHT22;578;48.408;10.004;2024-03-02T11:08:42;9.40;99.90
1179;DHT22;578;48.408;10.004;2024-03-02T11:10:48;9.40;99.90
1179;DHT22;578;48.408;10.004;2024-03-02T11:12:57;9.30;99.90
1179;DHT22;578;48.408;10.004;2024-03-02T11:15:03;9.20;99.90
1179;DHT22;578;48.408;10.004;2024-03-02T11:17:07;8.80;99.90
1179;DHT22;578;48.408;10.004;2024-03-02T11:19:10;8.70;99.90
1179;DHT22;578;48.408;10.004;2024-03-02T11:21:13;8.70;99.90
1179;DHT22;578;48.408;10.004;2024-03-02T11:23:15;8.70;99.90
1179;DHT22;578;48.408;10.004;2024-03-02T11:25:24;8.70;99.90
1179;DHT22;578;48.408;10.004;2024-03-02T11:28:00;8.80;99.90
1179;DHT22;578;48.408;10.004;2024-03-02T11:30:02;8.80;99.90
1179;DHT22;578;48.408;10.004;2024-03-02T11:32:04;8.90;99.90
1179;DHT22;578;48.408;10.004;2024-03-02T11:34:17;8.90;99.90
1179;DHT22;578;48.408;10.004;2024-03-02T11:36:20;8.90;99.90
1179;DHT22;578;48.408;10.004;2024-03-02T11:38:22;8.90;99.90
1179;DHT22;578;48.408;10.004;2024-03-02T11:40:25;8.80;99.90
1179;DHT22;578;48.408;10.004;2024-03-02T11:42:27;8.90;99.90
1179;DHT22;578;48.408;10.004;2024-03-02T11:44:29;9.00;99.90
1179;DHT22;578;48.408;10.004;2024-03-02T11:46:30;9.00;99.90
1179;DHT22;578;48.408;10.004;2024-03-02T11:48:32;9.00;99.90
1179;DHT22;578;48.408;10.004;2024-03-02T11:50:35;9.40;99.90
1179;DHT22;578;48.408;10.004;2024-03-02T11:52:41;9.40;99.90
1179;DHT22;578;48.408;10.004;2024-03-02T11:54:44;9.60;99.90
1179;DHT22;578;48.408;10.004;2024-03-02T11:56:52;9.70;99.90
1179;DHT22;578;48.408;10.004;2024-03-02T11:58:54;9.70;99.90
1179;DHT22;578;48.408;10.004;2024-03-02T12:00:56;9.70;99.90
1179;DHT22;578;48.408;10.004;2024-03-02T12:03:00;9.60;99.90
1179;DHT22;578;48.408;10.004;2024-03-02T12:05:03;9.70;99.90
1179;DHT22;578;48.408;10.004;2024-03-02T12:07:05;9.90;99.90
1179;DHT22;578;48.408;10.004;2024-03-02T12:09:09;9.80;99.90
1179;DHT22;578;48.408;10.004;2024-03-02T12:11:14;10.00;99.90
1179;DHT22;578;48.408;10.004;2024-03-02T12:13:16;10.20;99.90
1179;DHT22;578;48.408;10.004;2024-03-02T12:15:17;10.10;99.90
1179;DHT22;578;48.408;10.004;2024-03-02T12:17:19;10.30;99.90
1179;DHT22;578;48.408;10.004;2024-03-02T12:19:20;10.20;99.90
1179;DHT22;578;48.408;10.004;2024-03-02T12:21:22;10.40;99.90
1179;DHT22;578;48.408;10.004;2024-03-02T12:23:24;10.50;99.90
1179;DHT22;578;48.408;10.004;2024-03-02T12:25:27;10.60;99.90
1179;DHT22;578;48.408;10.004;2024-03-02T12:27:29;10.60;99.90
1179;DHT22;578;48.408;10.004;2024-03-02T12:29:31;10.60;99.90
1179;DHT22;578;48.408;10.004;2024-03-02T12:31:32;10.50;99.90
1179;DHT22;578;48.408;10.004;2024-03-02T12:33:34;10.60;99.90
1179;DHT22;578;48.408;10.004;2024-03-02T12:35:36;10.70;99.90
1179;DHT22;578;48.408;10.004;2024-03-02T12:37:42;10.80;99.90
1179;DHT22;578;48.408;10.004;2024-03-02T12:39:45;10.90;99.90
1179;DHT22;578;48.408;10.004;2024-03-02T12:41:49;10.80;99.90
1179;DHT22;578;48.408;10.004;2024-03-02T12:43:51;10.80;99.90
1179;DHT22;578;48.408;10.004;2024-03-02T12:45:53;11.00;99.90
1179;DHT22;578;48.408;10.004;2024-03-02T12:47:56;11.10;99.90
1179;DHT22;578;48.408;10.004;2024-03-02T12:49:58;11.20;99.90
1179;DHT22;578;48.408;10.004;2024-03-02T12:52:00;11.00;99.90
1179;DHT22;578;48.408;10.004;2024-03-02T12:54:03;11.10;99.90
1179;DHT22;578;48.408;10.004;2024-03-02T12:56:08;11.20;99.90
1179;DHT22;578;48.408;10.004;2024-03-02T12:58:16;11.20;99.90
1179;DHT22;578;48.408;10.004;2024-03-02T13:00:19;11.20;99.90
1179;DHT22;578;48.408;10.004;2024-03-02T13:02:21;11.10;99.90
1179;DHT22;578;48.408;10.004;2024-03-02T13:04:24;11.20;99.90
1179;DHT22;578;48.408;10.004;2024-03-02T13:06:26;11.30;99.90
1179;DHT22;578;48.408;10.004;2024-03-02T13:08:29;11.40;99.90
1179;DHT22;578;48.408;10.004;2024-03-02T13:10:32;11.50;99.90
1179;DHT22;578;48.408;10.004;2024-03-02T13:12:35;11.50;99.90
1179;DHT22;578;48.408;10.004;2024-03-02T13:14:37;11.50;99.90
1179;DHT22;578;48.408;10.004;2024-03-02T13:16:39;11.50;99.90
1179;DHT22;578;48.408;10.004;2024-03-02T13:18:40;11.40;99.90
1179;DHT22;578;48.408;10.004;2024-03-02T13:20:42;11.40;99.90
1179;DHT22;578;48.408;10.004;2024-03-02T13:22:44;11.40;99.90
1179;DHT22;578;48.408;10.004;2024-03-02T13:24:47;11.50;99.90
1179;DHT22;578;48.408;10.004;2024-03-02T13:26:48;11.60;99.90
1179;DHT22;578;48.408;10.004;2024-03-02T13:28:55;11.70;99.90
1179;DHT22;578;48.408;10.004;2024-03-02T13:30:58;11.60;99.90
1179;DHT22;578;48.408;10.004;2024-03-02T13:33:00;11.60;99.90